Time;durP1;ratioP1;P1;durP2;ratioP2;P2;SDS_P1;SDS_P2;PMS_P1;PMS_P2;Temp;Humidity;BMP_temperature;BMP_pressure;BME280_temperature;BME280_humidity;BME280_pressure;Samples;Min_cycle;Max_cycle;Signal;HPM_P1;HPM_P2
2021/11/18 00:01:52;;;;;;;22.40;11.25;;;11.30;87.90;;;;;;5054302;28;20096;-80
2021/11/18 00:04:19;;;;;;;20.98;12.02;;;11.30;87.80;;;;;;5052645;28;20086;-78
2021/11/18 00:06:48;;;;;;;22.05;12.02;;;11.30;87.90;;;;;;5052890;28;20025;-79
2021/11/18 00:09:17;;;;;;;22.20;12.27;;;11.30;87.90;;;;;;5052865;28;20025;-78
2021/11/18 00:11:44;;;;;;;20.08;11.57;;;11.30;87.80;;;;;;5052538;28;20029;-80
2021/11/18 00:14:10;;;;;;;20.60;11.38;;;11.30;87.80;;;;;;5052446;28;20028;-78
2021/11/18 00:16:35;;;;;;;21.75;12.18;;;11.30;87.80;;;;;;5052684;28;20558;-79
2021/11/18 00:19:04;;;;;;;18.70;11.18;;;11.30;87.80;;;;;;5052632;28;20056;-78
2021/11/18 00:21:32;;;;;;;20.40;12.25;;;11.30;87.90;;;;;;5052660;28;20017;-79
2021/11/18 00:23:59;;;;;;;19.48;11.52;;;11.30;87.90;;;;;;5053740;28;20029;-79
2021/11/18 00:26:27;;;;;;;18.55;10.48;;;11.30;87.80;;;;;;5052336;28;20056;-80
2021/11/18 00:28:53;;;;;;;19.70;11.52;;;11.30;87.90;;;;;;5052586;28;20112;-78
2021/11/18 00:31:22;;;;;;;19.35;11.50;;;11.30;87.80;;;;;;5052469;28;20052;-79
2021/11/18 00:33:48;;;;;;;20.48;11.45;;;11.30;87.80;;;;;;5053524;28;20047;-79
2021/11/18 00:36:15;;;;;;;17.52;10.57;;;11.30;87.80;;;;;;5052143;28;20480;-80
2021/11/18 00:38:42;;;;;;;19.95;10.63;;;11.40;87.90;;;;;;5051602;28;20116;-79
2021/11/18 00:41:07;;;;;;;18.52;10.40;;;11.30;87.80;;;;;;5052248;28;20029;-80
2021/11/18 00:43:33;;;;;;;20.02;11.65;;;11.30;87.90;;;;;;5052292;28;20021;-79
2021/11/18 00:45:59;;;;;;;20.52;11.20;;;11.30;87.80;;;;;;5053128;28;20033;-78
2021/11/18 00:48:25;;;;;;;19.98;10.77;;;11.30;87.90;;;;;;5052091;28;20056;-79
2021/11/18 00:50:50;;;;;;;19.95;11.07;;;11.30;87.90;;;;;;5052448;28;20021;-79
2021/11/18 00:53:16;;;;;;;21.13;10.68;;;11.30;87.90;;;;;;5051949;28;20040;-80
2021/11/18 00:58:07;;;;;;;17.63;10.48;;;11.30;87.90;;;;;;5070671;22;20076;-78
2021/11/18 01:00:36;;;;;;;17.83;10.55;;;11.30;87.80;;;;;;5051800;28;20021;-78
2021/11/18 01:03:03;;;;;;;18.92;10.40;;;11.30;87.80;;;;;;5051806;28;20056;-77
2021/11/18 01:05:32;;;;;;;23.05;10.70;;;11.30;87.80;;;;;;5051774;28;20445;-77
2021/11/18 01:07:59;;;;;;;18.45;10.75;;;11.40;88.20;;;;;;5052742;28;20036;-77
2021/11/18 01:10:30;;;;;;;19.35;11.07;;;11.40;87.60;;;;;;5051722;28;20407;-79
2021/11/18 01:12:56;;;;;;;18.83;10.25;;;11.40;87.50;;;;;;5051590;28;20029;-77
2021/11/18 01:15:25;;;;;;;20.35;10.82;;;11.40;87.90;;;;;;5051406;28;20032;-77
2021/11/18 01:17:51;;;;;;;18.38;10.77;;;11.40;87.30;;;;;;5051446;28;20017;-77
2021/11/18 01:20:18;;;;;;;19.40;10.90;;;11.40;87.30;;;;;;5051636;28;20028;-79
2021/11/18 01:22:44;;;;;;;19.52;10.68;;;11.40;87.30;;;;;;5051519;28;20017;-77
2021/11/18 01:25:12;;;;;;;18.23;10.23;;;11.40;87.20;;;;;;5051299;28;20507;-77
2021/11/18 01:27:38;;;;;;;19.40;11.05;;;11.40;87.70;;;;;;5052592;28;20029;-77
2021/11/18 01:30:07;;;;;;;17.08;9.45;;;11.40;87.10;;;;;;5051405;28;20124;-77
2021/11/18 01:32:33;;;;;;;21.38;9.98;;;11.50;87.20;;;;;;5051436;28;20047;-77
2021/11/18 01:34:58;;;;;;;17.85;10.02;;;11.40;87.10;;;;;;5051014;28;20025;-77
2021/11/18 01:37:24;;;;;;;19.33;9.90;;;11.40;87.10;;;;;;5052486;28;20032;-77
2021/11/18 01:39:49;;;;;;;15.88;9.70;;;11.40;87.70;;;;;;5051249;28;20021;-77
2021/11/18 01:42:15;;;;;;;17.65;10.20;;;11.40;87.20;;;;;;5051301;28;20021;-78
2021/11/18 01:44:44;;;;;;;16.60;9.25;;;11.40;87.40;;;;;;5050979;28;20049;-77
2021/11/18 01:47:12;;;;;;;19.23;9.57;;;11.40;87.60;;;;;;5051198;28;20021;-77
2021/11/18 01:49:42;;;;;;;18.27;9.90;;;11.30;87.60;;;;;;5052250;28;20021;-77
2021/11/18 01:52:14;;;;;;;17.90;10.40;;;11.30;87.70;;;;;;5051163;28;20017;-77
2021/11/18 01:54:41;;;;;;;17.55;9.43;;;11.30;87.70;;;;;;5050842;28;20032;-77
2021/11/18 01:57:09;;;;;;;15.75;9.85;;;11.30;88.40;;;;;;5050882;28;20207;-77
2021/11/18 01:59:39;;;;;;;19.77;10.10;;;11.30;87.90;;;;;;5051040;28;20115;-79
2021/11/18 02:02:05;;;;;;;17.02;10.02;;;11.30;88.00;;;;;;5052379;28;20031;-77
2021/11/18 02:04:31;;;;;;;17.70;9.98;;;11.30;88.00;;;;;;5052087;28;20033;-77
2021/11/18 02:06:59;;;;;;;17.98;9.90;;;11.30;88.00;;;;;;5050874;28;20025;-77
2021/11/18 02:09:27;;;;;;;15.40;9.25;;;11.30;88.10;;;;;;5050959;28;20029;-77
2021/11/18 02:11:57;;;;;;;18.45;9.98;;;11.30;88.10;;;;;;5051969;28;20056;-77
2021/11/18 02:14:26;;;;;;;16.20;9.40;;;11.30;88.10;;;;;;5052169;28;20029;-77
2021/11/18 02:16:55;;;;;;;17.02;9.82;;;11.30;88.10;;;;;;5050828;28;20025;-77
2021/11/18 02:19:20;;;;;;;18.45;9.48;;;11.30;88.10;;;;;;5050903;28;20104;-77
2021/11/18 02:21:48;;;;;;;18.23;10.27;;;11.30;88.10;;;;;;5050729;28;20507;-78
2021/11/18 02:24:30;;;;;;;18.98;10.05;;;11.30;88.10;;;;;;5050557;28;20025;-77
2021/11/18 02:26:56;;;;;;;19.52;10.55;;;11.30;88.10;;;;;;5050873;28;20064;-77
2021/11/18 02:29:23;;;;;;;18.67;9.77;;;11.30;88.10;;;;;;5052070;28;20029;-77
2021/11/18 02:31:58;;;;;;;15.65;9.32;;;11.30;88.10;;;;;;5050847;28;20052;-78
2021/11/18 02:34:38;;;;;;;18.23;9.60;;;11.30;88.10;;;;;;5050493;28;20032;-77
2021/11/18 02:37:04;;;;;;;16.50;9.32;;;11.30;88.10;;;;;;5051944;28;20017;-77
2021/11/18 02:39:29;;;;;;;17.23;9.23;;;11.30;88.10;;;;;;5051006;28;20063;-77
2021/11/18 02:41:55;;;;;;;15.90;9.55;;;11.30;88.10;;;;;;5051788;28;20102;-77
2021/11/18 02:44:20;;;;;;;15.88;9.18;;;11.30;88.10;;;;;;5051665;28;20033;-77
2021/11/18 02:46:46;;;;;;;17.10;9.40;;;11.30;88.00;;;;;;5051723;28;20037;-77
2021/11/18 02:49:11;;;;;;;13.18;8.40;;;11.30;88.10;;;;;;5051781;28;20057;-77
2021/11/18 02:51:37;;;;;;;18.13;9.82;;;11.30;88.00;;;;;;5050560;28;20025;-77
2021/11/18 02:54:04;;;;;;;15.98;9.45;;;11.30;88.00;;;;;;5050423;28;20029;-77
2021/11/18 02:56:32;;;;;;;16.15;9.55;;;11.30;88.00;;;;;;5050247;28;20032;-79
2021/11/18 02:58:59;;;;;;;15.07;9.30;;;11.30;88.10;;;;;;5050777;28;20029;-79
2021/11/18 03:01:36;;;;;;;18.13;9.30;;;11.30;88.00;;;;;;5051619;28;20025;-78
2021/11/18 03:04:01;;;;;;;16.00;9.10;;;11.30;88.10;;;;;;5054211;28;20029;-78
2021/11/18 03:06:27;;;;;;;16.35;9.75;;;11.30;88.10;;;;;;5054937;28;20032;-78
2021/11/18 03:08:53;;;;;;;18.85;9.88;;;11.30;88.10;;;;;;5054095;28;20029;-79
2021/11/18 03:11:22;;;;;;;18.35;9.02;;;11.30;88.00;;;;;;5055165;28;20108;-78
2021/11/18 03:13:48;;;;;;;15.90;9.65;;;11.30;88.00;;;;;;5053764;28;20067;-77
2021/11/18 03:16:14;;;;;;;17.52;9.73;;;11.30;88.00;;;;;;5053697;28;20455;-79
2021/11/18 03:18:40;;;;;;;16.75;9.52;;;11.30;88.00;;;;;;5054142;28;20391;-77
2021/11/18 03:21:10;;;;;;;17.45;10.07;;;11.30;88.00;;;;;;5054986;28;20029;-77
2021/11/18 03:23:37;;;;;;;16.60;9.10;;;11.30;88.00;;;;;;5053744;28;20036;-79
2021/11/18 03:26:04;;;;;;;16.88;9.65;;;11.30;88.10;;;;;;5054770;28;20033;-78
2021/11/18 03:28:33;;;;;;;15.65;9.75;;;11.30;88.10;;;;;;5054696;28;20033;-81
2021/11/18 03:31:01;;;;;;;17.17;9.05;;;11.30;88.10;;;;;;5053624;28;20032;-79
2021/11/18 03:33:30;;;;;;;14.60;8.88;;;11.30;88.00;;;;;;5053408;28;20106;-78
2021/11/18 03:35:57;;;;;;;14.57;9.20;;;11.30;88.00;;;;;;5053179;28;20391;-79
2021/11/18 03:38:25;;;;;;;16.20;9.73;;;11.30;88.10;;;;;;5054730;28;20021;-79
2021/11/18 03:40:51;;;;;;;17.42;9.20;;;11.30;88.00;;;;;;5050610;28;20082;-77
2021/11/18 03:43:21;;;;;;;16.65;9.07;;;11.30;88.10;;;;;;5053329;28;20025;-78
2021/11/18 03:45:49;;;;;;;15.43;8.85;;;11.30;88.00;;;;;;5053122;28;20021;-79
2021/11/18 03:48:19;;;;;;;15.82;9.38;;;11.30;88.00;;;;;;5053294;28;20079;-78
2021/11/18 03:50:45;;;;;;;16.50;9.30;;;11.30;88.00;;;;;;5053139;28;20488;-78
2021/11/18 03:53:11;;;;;;;15.55;8.80;;;11.30;88.00;;;;;;5054532;28;20033;-79
2021/11/18 03:55:37;;;;;;;16.27;9.23;;;11.30;88.50;;;;;;5052910;28;20029;-78
2021/11/18 03:58:03;;;;;;;16.23;9.15;;;11.30;88.00;;;;;;5052969;28;20116;-79
2021/11/18 04:00:31;;;;;;;19.48;8.82;;;11.30;88.00;;;;;;5053067;28;20064;-77
2021/11/18 04:02:57;;;;;;;16.58;9.07;;;11.30;87.90;;;;;;5054247;28;20025;-78
2021/11/18 04:05:23;;;;;;;15.25;8.93;;;11.30;88.00;;;;;;5054041;28;20094;-77
2021/11/18 04:07:48;;;;;;;20.23;9.80;;;11.30;88.00;;;;;;5052858;28;20560;-78
2021/11/18 04:10:21;;;;;;;15.45;9.38;;;11.30;88.00;;;;;;5054120;28;20155;-78
2021/11/18 04:12:47;;;;;;;14.88;9.02;;;11.30;87.90;;;;;;5053660;28;20137;-77
2021/11/18 04:15:14;;;;;;;15.43;9.45;;;11.30;87.90;;;;;;5053752;28;20108;-78
2021/11/18 04:17:40;;;;;;;16.60;8.95;;;11.30;87.90;;;;;;5053878;28;20511;-77
2021/11/18 04:20:08;;;;;;;16.42;8.90;;;11.30;87.90;;;;;;5053952;28;20551;-77
2021/11/18 04:22:35;;;;;;;15.05;9.30;;;11.30;87.90;;;;;;5053699;28;20017;-77
2021/11/18 04:25:00;;;;;;;14.77;9.35;;;11.30;87.90;;;;;;5053638;28;20029;-78
2021/11/18 04:27:26;;;;;;;15.00;9.52;;;11.30;87.90;;;;;;5053635;28;20055;-78
2021/11/18 04:29:51;;;;;;;16.50;9.52;;;11.30;88.00;;;;;;5052535;28;20514;-77
2021/11/18 04:32:24;;;;;;;16.60;9.43;;;11.30;87.90;;;;;;5052511;28;20567;-79
2021/11/18 04:34:50;;;;;;;15.88;9.40;;;11.30;87.90;;;;;;5052070;28;20024;-77
2021/11/18 04:37:15;;;;;;;16.70;9.70;;;11.30;88.00;;;;;;5052296;28;20032;-79
2021/11/18 04:39:41;;;;;;;17.65;9.88;;;11.30;87.90;;;;;;5052228;28;20025;-77
2021/11/18 04:42:08;;;;;;;15.00;9.40;;;11.30;88.00;;;;;;5052305;28;20032;-77
2021/11/18 04:44:35;;;;;;;16.17;9.82;;;11.30;88.00;;;;;;5052070;28;20029;-77
2021/11/18 04:47:04;;;;;;;15.25;9.45;;;11.30;87.90;;;;;;5052050;28;20071;-78
2021/11/18 04:49:29;;;;;;;15.77;10.05;;;11.30;88.00;;;;;;5053457;28;20032;-78
2021/11/18 04:51:55;;;;;;;15.98;9.60;;;11.30;88.00;;;;;;5053298;28;20029;-77
2021/11/18 04:54:20;;;;;;;16.98;10.38;;;11.30;88.00;;;;;;5051717;28;20029;-77
2021/11/18 04:56:46;;;;;;;15.80;10.52;;;11.30;88.00;;;;;;5051797;28;20036;-79
2021/11/18 04:59:12;;;;;;;16.30;9.27;;;11.30;87.90;;;;;;5053180;28;20023;-77
2021/11/18 05:01:38;;;;;;;16.35;10.20;;;11.30;87.90;;;;;;5051738;28;20060;-77
2021/11/18 05:04:06;;;;;;;16.88;9.80;;;11.30;87.90;;;;;;5051637;28;20029;-77
2021/11/18 05:06:32;;;;;;;14.85;9.88;;;11.30;87.90;;;;;;5052864;28;20035;-77
2021/11/18 05:08:58;;;;;;;16.92;9.80;;;11.30;87.80;;;;;;5051741;28;20025;-77
2021/11/18 05:11:23;;;;;;;17.13;9.98;;;11.30;87.70;;;;;;5051667;28;20025;-78
2021/11/18 05:13:49;;;;;;;16.98;10.32;;;11.30;87.70;;;;;;5051194;28;20052;-78
2021/11/18 05:16:17;;;;;;;15.98;10.35;;;11.40;87.60;;;;;;5052668;28;20381;-77
2021/11/18 05:18:44;;;;;;;17.35;10.93;;;11.40;87.60;;;;;;5051657;28;20025;-77
2021/11/18 05:21:12;;;;;;;17.05;10.85;;;11.40;87.50;;;;;;5051590;28;20044;-77
2021/11/18 05:23:39;;;;;;;17.58;10.95;;;11.40;87.40;;;;;;5052404;28;20135;-77
2021/11/18 05:26:06;;;;;;;17.38;10.57;;;11.40;87.40;;;;;;5051185;28;20025;-77
2021/11/18 05:28:31;;;;;;;17.52;10.60;;;11.40;87.30;;;;;;5052682;28;20021;-77
2021/11/18 05:30:58;;;;;;;18.10;11.15;;;11.40;87.30;;;;;;5051379;28;20498;-77
2021/11/18 05:33:28;;;;;;;18.35;10.77;;;11.40;87.30;;;;;;5052430;28;20021;-77
2021/11/18 05:35:54;;;;;;;17.42;11.15;;;11.40;87.20;;;;;;5051059;28;20025;-78
2021/11/18 05:38:21;;;;;;;19.98;11.68;;;11.40;87.20;;;;;;5052529;28;20051;-77
2021/11/18 05:40:47;;;;;;;17.30;11.32;;;11.40;87.20;;;;;;5045877;28;20028;-77
2021/11/18 05:43:13;;;;;;;17.77;11.77;;;11.40;87.30;;;;;;5051098;28;20025;-79
2021/11/18 05:45:40;;;;;;;16.92;11.38;;;11.40;87.20;;;;;;5050996;28;20108;-78
2021/11/18 05:48:08;;;;;;;18.13;12.32;;;11.40;87.20;;;;;;5052346;28;20040;-78
2021/11/18 05:50:35;;;;;;;16.17;11.50;;;11.40;87.20;;;;;;5050494;28;20029;-77
2021/11/18 05:53:01;;;;;;;18.80;11.68;;;11.40;87.30;;;;;;5050998;28;20443;-77
2021/11/18 05:55:29;;;;;;;17.45;11.90;;;11.40;87.40;;;;;;5050702;28;20021;-77
2021/11/18 05:57:55;;;;;;;20.58;12.38;;;11.40;87.50;;;;;;5040821;28;20520;-76
2021/11/18 06:00:24;;;;;;;18.48;12.60;;;11.40;87.70;;;;;;5032301;28;20029;-78
2021/11/18 06:02:50;;;;;;;17.70;11.93;;;11.30;87.80;;;;;;5032465;28;20030;-77
2021/11/18 06:05:16;;;;;;;20.77;12.63;;;11.30;88.00;;;;;;5032139;28;20029;-76
2021/11/18 06:07:43;;;;;;;17.23;12.80;;;11.30;88.10;;;;;;5030981;28;20151;-77
2021/11/18 06:10:10;;;;;;;17.48;12.27;;;11.30;88.20;;;;;;5031125;28;20488;-76
2021/11/18 06:12:36;;;;;;;18.17;12.55;;;11.30;88.20;;;;;;5030690;28;20036;-77
2021/11/18 06:15:03;;;;;;;18.27;12.93;;;11.30;88.10;;;;;;5030761;28;20025;-76
2021/11/18 06:17:28;;;;;;;22.58;13.20;;;11.30;88.10;;;;;;5030928;28;20044;-77
2021/11/18 06:19:54;;;;;;;22.15;14.27;;;11.30;88.10;;;;;;5030995;28;20382;-76
2021/11/18 06:22:24;;;;;;;25.58;15.18;;;11.20;87.80;;;;;;5030836;28;20075;-76
2021/11/18 06:24:51;;;;;;;24.63;14.57;;;11.20;87.70;;;;;;5031145;28;20033;-76
2021/11/18 06:27:17;;;;;;;24.90;14.60;;;11.10;87.80;;;;;;5032493;28;20025;-76
2021/11/18 06:29:42;;;;;;;21.45;14.07;;;11.20;88.10;;;;;;5030783;28;20120;-78
2021/11/18 06:32:08;;;;;;;27.38;15.85;;;11.20;88.10;;;;;;5030913;28;20031;-78
2021/11/18 06:34:35;;;;;;;28.08;16.45;;;11.20;87.90;;;;;;5031716;28;20393;-77
2021/11/18 06:37:01;;;;;;;26.52;15.75;;;11.20;88.00;;;;;;5034146;28;20093;-76
2021/11/18 06:39:27;;;;;;;22.35;14.65;;;11.20;88.00;;;;;;5035850;28;20079;-78
2021/11/18 06:41:52;;;;;;;26.42;15.80;;;11.20;88.10;;;;;;5034824;28;20049;-77
2021/11/18 06:44:18;;;;;;;22.10;14.75;;;11.20;88.60;;;;;;5034285;28;20124;-77
2021/11/18 06:46:44;;;;;;;23.27;14.82;;;11.20;88.10;;;;;;5035687;28;20481;-77
2021/11/18 06:49:10;;;;;;;23.05;15.73;;;11.20;88.10;;;;;;5035712;28;20063;-76
2021/11/18 06:51:40;;;;;;;23.15;15.68;;;11.20;88.20;;;;;;5034423;28;20021;-77
2021/11/18 06:54:06;;;;;;;21.73;15.15;;;11.20;88.20;;;;;;5034221;28;20113;-77
2021/11/18 06:56:33;;;;;;;24.02;15.18;;;11.20;88.20;;;;;;5061638;22;20043;-80
2021/11/18 06:58:59;;;;;;;21.65;15.93;;;11.20;88.20;;;;;;5054271;28;20462;-80
2021/11/18 07:01:25;;;;;;;26.48;16.27;;;11.20;88.20;;;;;;5054138;28;20028;-80
2021/11/18 07:03:51;;;;;;;23.17;16.08;;;11.20;88.20;;;;;;5054479;28;20037;-80
2021/11/18 07:06:19;;;;;;;24.45;16.95;;;11.20;88.20;;;;;;5053819;28;20091;-80
2021/11/18 07:08:46;;;;;;;23.17;16.17;;;11.20;88.20;;;;;;5054006;28;20021;-80
2021/11/18 07:11:13;;;;;;;25.98;17.60;;;11.20;88.20;;;;;;5054185;28;20025;-80
2021/11/18 07:13:39;;;;;;;23.23;16.40;;;11.20;88.20;;;;;;5053483;28;20466;-80
2021/11/18 07:16:08;;;;;;;24.42;16.52;;;11.20;88.20;;;;;;5053783;28;20518;-80
2021/11/18 07:18:34;;;;;;;23.70;17.23;;;11.30;88.30;;;;;;5053813;28;20025;-80
2021/11/18 07:21:00;;;;;;;22.90;17.95;;;11.30;88.20;;;;;;5053901;28;20025;-80
2021/11/18 07:23:26;;;;;;;23.48;16.98;;;11.20;88.20;;;;;;5048308;28;20029;-79
2021/11/18 07:26:01;;;;;;;22.52;16.23;;;11.20;88.10;;;;;;5033013;28;20033;-82
2021/11/18 07:28:29;;;;;;;25.65;17.27;;;11.30;88.20;;;;;;5039584;28;20017;-79
2021/11/18 07:30:57;;;;;;;25.90;17.30;;;11.30;88.20;;;;;;5036569;28;20076;-78
2021/11/18 07:33:24;;;;;;;25.80;17.95;;;11.20;88.10;;;;;;5042123;28;20501;-79
2021/11/18 07:35:52;;;;;;;25.33;16.88;;;11.30;88.20;;;;;;5039069;28;20405;-81
2021/11/18 07:38:18;;;;;;;27.02;18.10;;;11.20;88.00;;;;;;5049139;28;20090;-80
2021/11/18 07:40:45;;;;;;;27.10;18.33;;;11.30;88.20;;;;;;5041370;28;20018;-80
2021/11/18 07:43:13;;;;;;;25.25;17.40;;;11.20;88.10;;;;;;5032362;28;20024;-82
2021/11/18 07:45:39;;;;;;;26.00;18.27;;;11.30;88.20;;;;;;5035358;28;20029;-79
2021/11/18 07:48:04;;;;;;;25.45;18.88;;;11.30;88.20;;;;;;5051536;28;20021;-80
2021/11/18 07:50:30;;;;;;;25.15;18.55;;;11.30;88.10;;;;;;5051921;28;20549;-80
2021/11/18 07:52:59;;;;;;;28.08;19.00;;;11.30;88.20;;;;;;5052103;28;20060;-80
2021/11/18 07:55:25;;;;;;;26.13;18.20;;;11.30;88.10;;;;;;5044553;28;20923;-79
2021/11/18 07:57:59;;;;;;;25.23;18.15;;;11.30;88.20;;;;;;5040373;28;20025;-82
2021/11/18 08:01:37;;;;;;;23.77;17.52;;;11.30;88.10;;;;;;5032782;28;20091;-79
2021/11/18 08:04:12;;;;;;;25.08;16.88;;;11.30;88.10;;;;;;5041170;28;20820;-79
2021/11/18 08:13:48;;;;;;;22.70;18.15;;;11.30;87.80;;;;;;5050849;28;20064;-79
2021/11/18 08:16:44;;;;;;;;;;;;;;;;;;;;;
2021/11/18 08:19:31;;;;;;;24.33;17.52;;;11.30;87.60;;;;;;5049913;28;20029;-78
2021/11/18 08:25:49;;;;;;;23.60;19.08;;;11.30;87.60;;;;;;5049529;28;20017;-79
2021/11/18 08:28:28;;;;;;;26.52;19.33;;;11.40;87.80;;;;;;5073454;22;20040;-79
2021/11/18 08:31:13;;;;;;;26.80;19.13;;;11.40;87.80;;;;;;5068510;28;20444;-79
2021/11/18 08:33:38;;;;;;;26.10;19.55;;;11.40;87.80;;;;;;5062252;28;20036;-79
2021/11/18 08:36:04;;;;;;;29.40;19.92;;;11.40;87.80;;;;;;5063701;28;20969;-81
2021/11/18 08:38:30;;;;;;;26.48;19.63;;;11.40;87.80;;;;;;5076525;28;20387;-82
2021/11/18 08:41:00;;;;;;;24.90;18.50;;;11.40;87.80;;;;;;5083889;28;20027;-81
2021/11/18 08:43:27;;;;;;;28.27;19.30;;;11.30;87.70;;;;;;5079755;28;20062;-79
2021/11/18 08:45:52;;;;;;;26.27;18.85;;;11.30;87.70;;;;;;5072290;28;20036;-81
2021/11/18 08:48:19;;;;;;;24.98;18.65;;;11.40;87.70;;;;;;5070322;28;20032;-80
2021/11/18 08:50:49;;;;;;;24.25;18.33;;;11.40;87.60;;;;;;5071235;28;20028;-79
2021/11/18 08:53:16;;;;;;;27.02;18.92;;;11.40;87.50;;;;;;5070510;28;20025;-79
2021/11/18 08:55:43;;;;;;;26.42;18.23;;;11.40;87.40;;;;;;5070495;28;20043;-78
2021/11/18 08:58:14;;;;;;;27.73;18.48;;;11.40;87.40;;;;;;5069754;28;20495;-79
2021/11/18 09:00:45;;;;;;;26.42;18.63;;;11.40;87.50;;;;;;5070099;28;20111;-80
2021/11/18 09:03:12;;;;;;;24.98;18.42;;;11.40;87.60;;;;;;5070614;28;20031;-76
2021/11/18 09:05:37;;;;;;;26.65;18.77;;;11.40;87.60;;;;;;5070181;28;20380;-82
2021/11/18 09:08:04;;;;;;;24.77;17.83;;;11.40;87.70;;;;;;5079308;28;20085;-80
2021/11/18 09:10:31;;;;;;;26.55;18.63;;;11.40;87.70;;;;;;5085399;28;20132;-81
2021/11/18 09:12:56;;;;;;;25.90;18.70;;;11.40;87.60;;;;;;5082252;28;20021;-79
2021/11/18 09:15:24;;;;;;;23.95;17.60;;;11.40;87.40;;;;;;5074468;28;20035;-80
2021/11/18 09:17:50;;;;;;;25.35;18.13;;;11.50;87.40;;;;;;5070703;28;20153;-79
2021/11/18 09:20:18;;;;;;;25.15;17.38;;;11.50;87.30;;;;;;5071323;28;20057;-82
2021/11/18 09:22:45;;;;;;;25.38;17.23;;;11.50;87.20;;;;;;5079968;28;20115;-81
2021/11/18 09:25:13;;;;;;;24.77;17.63;;;11.50;87.10;;;;;;5083638;28;20094;-81
2021/11/18 09:27:58;;;;;;;24.20;17.42;;;11.50;87.10;;;;;;5081126;28;20031;-80
2021/11/18 09:30:33;;;;;;;27.40;17.00;;;11.50;87.10;;;;;;5080999;28;20383;-79
2021/11/18 09:33:00;;;;;;;22.52;16.58;;;11.50;87.10;;;;;;5068167;28;20165;-80
2021/11/18 09:35:38;;;;;;;27.10;17.50;;;11.60;87.10;;;;;;5088668;28;20458;-80
2021/11/18 09:38:05;;;;;;;25.95;16.65;;;11.50;87.00;;;;;;5080571;28;20035;-80
2021/11/18 09:40:41;;;;;;;23.08;16.33;;;11.60;87.10;;;;;;5082165;28;20085;-81
2021/11/18 09:43:45;;;;;;;23.27;15.48;;;11.60;87.00;;;;;;5076149;28;20020;-78
2021/11/18 09:46:29;;;;;;;24.50;15.88;;;11.60;87.10;;;;;;5076180;28;20110;-79
2021/11/18 09:49:26;;;;;;;22.15;15.25;;;11.60;87.10;;;;;;5080059;28;20024;-77
2021/11/18 09:51:58;;;;;;;18.80;14.52;;;11.50;87.20;;;;;;5091717;28;20386;-79
2021/11/18 09:54:42;;;;;;;20.85;14.43;;;11.50;87.40;;;;;;5089333;28;20127;-78
2021/11/18 09:57:17;;;;;;;22.33;14.80;;;11.50;87.60;;;;;;5091827;28;20067;-78
2021/11/18 10:00:08;;;;;;;23.90;14.80;;;11.40;87.70;;;;;;5090282;28;20024;-78
2021/11/18 10:02:49;;;;;;;21.50;14.02;;;11.40;87.80;;;;;;5090075;28;20016;-78
2021/11/18 10:05:26;;;;;;;22.30;13.80;;;11.40;87.90;;;;;;5090118;28;20050;-78
2021/11/18 10:08:00;;;;;;;19.42;13.73;;;11.40;87.90;;;;;;5089539;28;20020;-77
2021/11/18 10:10:41;;;;;;;24.52;13.93;;;11.40;87.90;;;;;;5092431;28;20225;-77
2021/11/18 10:13:49;;;;;;;20.42;13.80;;;11.40;88.10;;;;;;5095554;28;20038;-78
2021/11/18 10:16:22;;;;;;;21.25;13.77;;;11.40;88.00;;;;;;5093849;28;20510;-78
2021/11/18 10:18:54;;;;;;;20.75;13.23;;;11.40;88.10;;;;;;5093984;28;20024;-78
2021/11/18 10:21:22;;;;;;;24.15;13.68;;;11.40;88.10;;;;;;5094643;28;20028;-79
2021/11/18 10:23:58;;;;;;;20.90;13.23;;;11.40;88.10;;;;;;5093597;28;20093;-78
2021/11/18 11:38:02;;;;;;;25.02;14.35;;;11.80;87.00;;;;;;5064518;28;20028;-83
2021/11/18 11:51:34;;;;;;;25.45;13.68;;;11.60;87.30;;;;;;5035858;28;20098;-82
2021/11/18 12:05:03;;;;;;;;;;;;;;;;;;;;;
2021/11/18 12:08:25;;;;;;;26.52;12.60;;;11.70;87.30;;;;;;5031614;28;20040;-81
2021/11/18 12:18:25;;;;;;;24.63;11.68;;;11.70;87.30;;;;;;4954088;29;20259;-80
2021/11/18 12:25:05;;;;;;;;;;;;;;;;;;;;;
2021/11/18 12:28:10;;;;;;;;;;;;;;;;;;;;;
2021/11/18 12:41:31;;;;;;;19.65;11.25;;;12.00;86.10;;;;;;5031637;28;20025;-81
2021/11/18 13:29:16;;;;;;;19.27;9.05;;;12.20;85.40;;;;;;5069730;28;20056;-82
2021/11/18 13:38:37;;;;;;;20.30;8.85;;;12.10;85.40;;;;;;5078713;28;20035;-81
2021/11/18 13:41:27;;;;;;;22.17;9.40;;;12.10;85.70;;;;;;5053795;28;20483;-79
2021/11/18 13:44:14;;;;;;;22.33;9.00;;;12.00;86.10;;;;;;4960456;28;20034;-80
2021/11/18 13:47:25;;;;;;;18.70;8.48;;;12.00;86.40;;;;;;5051251;28;20092;-79
2021/11/18 13:50:32;;;;;;;17.52;8.02;;;12.00;86.70;;;;;;5066001;28;20037;-79
2021/11/18 13:53:18;;;;;;;18.70;8.27;;;11.90;86.90;;;;;;5021144;28;20052;-80
2021/11/18 13:55:55;;;;;;;19.10;8.38;;;12.00;87.10;;;;;;5051696;28;20090;-79
2021/11/18 13:59:16;;;;;;;18.75;7.97;;;11.90;87.20;;;;;;5051879;28;20090;-80
2021/11/18 14:01:52;;;;;;;17.95;8.48;;;11.90;87.10;;;;;;5036755;28;20147;-79
2021/11/18 14:04:43;;;;;;;19.13;8.30;;;11.70;87.10;;;;;;5051461;28;20051;-79
2021/11/18 14:07:21;;;;;;;17.13;7.90;;;11.90;87.30;;;;;;5053405;28;20079;-80
2021/11/18 14:10:10;;;;;;;18.42;8.00;;;11.90;87.30;;;;;;5052306;28;20021;-78
2021/11/18 14:13:22;;;;;;;16.40;7.47;;;11.90;87.30;;;;;;5052074;28;20028;-79
2021/11/18 14:16:06;;;;;;;16.80;7.60;;;11.80;87.20;;;;;;5087172;23;20117;-77
2021/11/18 14:18:35;;;;;;;16.20;7.07;;;11.80;87.30;;;;;;5054375;28;20024;-75
2021/11/18 14:21:12;;;;;;;17.88;8.43;;;11.80;87.40;;;;;;5070998;28;20032;-74
2021/11/18 14:23:47;;;;;;;13.32;7.00;;;11.80;87.40;;;;;;5072084;28;20069;-75
2021/11/18 14:26:18;;;;;;;16.90;6.55;;;11.80;87.40;;;;;;5067958;28;20025;-75
2021/11/18 14:28:54;;;;;;;15.60;6.47;;;11.80;87.50;;;;;;5074147;28;20396;-75
2021/11/18 14:31:53;;;;;;;17.23;6.60;;;11.80;87.50;;;;;;5074155;28;20470;-76
2021/11/18 14:34:31;;;;;;;12.88;5.90;;;11.80;87.50;;;;;;5073080;28;20063;-75
2021/11/18 14:37:15;;;;;;;14.35;6.57;;;11.80;87.60;;;;;;5091710;28;20028;-74
2021/11/18 14:39:50;;;;;;;14.82;6.43;;;11.80;87.60;;;;;;5056765;28;20024;-75
2021/11/18 14:42:16;;;;;;;14.30;6.43;;;11.70;87.50;;;;;;5073579;28;20032;-74
2021/11/18 14:44:45;;;;;;;15.57;6.55;;;11.70;87.50;;;;;;5072820;28;20020;-81
2021/11/18 14:47:30;;;;;;;12.85;5.90;;;11.70;87.70;;;;;;5064475;28;20035;-74
2021/11/18 14:50:13;;;;;;;16.25;6.60;;;11.70;87.80;;;;;;5071750;28;20024;-74
2021/11/18 14:52:52;;;;;;;16.35;6.43;;;11.70;87.80;;;;;;5053807;28;20025;-74
2021/11/18 14:55:36;;;;;;;15.25;6.55;;;11.70;87.80;;;;;;5085086;28;20097;-75
2021/11/18 14:58:04;;;;;;;15.93;6.28;;;11.70;87.90;;;;;;5094001;28;20035;-78
2021/11/18 15:00:40;;;;;;;21.25;7.15;;;11.70;87.70;;;;;;5095505;28;20054;-74
2021/11/18 15:03:10;;;;;;;14.88;6.28;;;11.70;87.90;;;;;;5095655;28;20028;-75
2021/11/18 15:05:36;;;;;;;19.60;6.88;;;11.70;87.70;;;;;;5095233;28;20045;-74
2021/11/18 15:08:01;;;;;;;15.50;6.32;;;11.70;87.40;;;;;;5077327;28;20126;-73
2021/11/18 15:10:29;;;;;;;15.07;5.93;;;11.70;87.40;;;;;;5077267;28;20173;-75
2021/11/18 15:12:55;;;;;;;15.75;6.22;;;11.70;87.50;;;;;;5066008;28;20024;-75
2021/11/18 15:15:25;;;;;;;20.42;6.97;;;11.70;87.50;;;;;;5056564;28;20039;-75
2021/11/18 15:17:54;;;;;;;18.50;6.55;;;11.70;87.80;;;;;;5062289;28;20051;-74
2021/11/18 15:20:23;;;;;;;15.80;6.47;;;11.60;87.80;;;;;;5077164;28;20020;-75
2021/11/18 15:22:53;;;;;;;16.30;6.72;;;11.70;87.80;;;;;;5095161;28;20020;-73
2021/11/18 15:25:21;;;;;;;20.60;6.35;;;11.60;87.70;;;;;;5076863;28;20031;-75
2021/11/18 15:27:48;;;;;;;16.35;6.13;;;11.60;87.80;;;;;;5077049;28;20051;-75
2021/11/18 15:30:18;;;;;;;20.75;6.55;;;11.70;87.80;;;;;;5077120;28;20514;-76
2021/11/18 15:32:44;;;;;;;20.40;6.55;;;11.70;87.80;;;;;;5076522;28;20495;-74
2021/11/18 15:35:16;;;;;;;21.13;6.47;;;11.60;87.70;;;;;;5076600;28;20027;-73
2021/11/18 15:37:42;;;;;;;17.33;6.30;;;11.60;87.70;;;;;;5095003;28;20028;-74
2021/11/18 15:40:10;;;;;;;19.27;5.82;;;11.60;87.80;;;;;;5077043;28;20024;-75
2021/11/18 15:42:37;;;;;;;15.88;6.57;;;11.60;87.80;;;;;;5076764;28;20039;-74
2021/11/18 15:45:05;;;;;;;19.67;5.55;;;11.60;87.70;;;;;;5094668;28;20490;-75
2021/11/18 15:47:30;;;;;;;16.20;6.00;;;11.60;87.70;;;;;;5094739;28;20146;-73
2021/11/18 15:49:56;;;;;;;17.45;5.85;;;11.60;87.70;;;;;;5094737;28;20111;-75
2021/11/18 15:52:25;;;;;;;15.10;5.72;;;11.60;88.20;;;;;;5091567;28;20038;-73
2021/11/18 15:54:53;;;;;;;15.70;5.50;;;11.60;87.70;;;;;;5076001;28;20502;-74